HOURLY OBS INDEX

077

Mallee - south

HOPETOUN AIRPORT

Site: 077010
Alt: 77.3m
87km NNE of DIMBOOLA


  Time     Wind        Temp  DP   Baro     Rain since   Rain past  Vis(m), Cloud(base in m), Weather
  local        km/h                         9am  last   hr   10m    
Wed 21:00    W 20/ 28  15.3 10.3  1015.4    0.0   0.0   0.0   0.0   ----- 
Wed 21:30    W 24/ 32  14.8 10.8  1015.6    0.0   0.0   0.0   0.0   ----- 
Wed 22:00    W 22/ 30  14.5 10.7  1015.7    0.0   0.0   0.0   0.0   ----- 
Wed 22:30    W 22/ 30  13.9 10.9  1015.7    0.0   0.0   0.0   0.0   ----- 
Wed 23:00    W 20/ 28  13.6 10.8  1015.4    0.0   0.0   0.0   0.0   ----- 
Wed 23:30    W 19/ 26  13.7 10.9  1015.3    0.0   0.0   0.0   0.0   ----- 
Thu 00:00    W 13/ 19  12.9 10.4  1015.3    0.0   0.0   0.0   0.0   ----- 
Thu 00:30  WNW  9/ 13  12.4 10.1  1015.3    0.0   0.0   0.0   0.0   ----- 
Thu 01:00   NW 11/ 17  12.4 10.5  1015.2    0.0   0.0   0.0   0.0   ----- 
Thu 01:30  WNW 15/ 20  12.9 10.6  1015.0    0.0   0.0   0.0   0.0   ----- 
Thu 02:00  WNW 15/ 20  12.9 10.4  1014.9    0.0   0.0   0.0   0.0   ----- 

SWAN HILL AERODROME

Site: 077094
Alt: 71.0m
4km SSW of SWAN HILL


  Time     Wind        Temp  DP   Baro     Rain since   Rain past  Vis(m), Cloud(base in m), Weather
  local        km/h                         9am  last   hr   10m    
Wed 21:00    W 22/ 32  16.8 10.6  1014.9    0.0   0.0   0.0   0.0   10000|OC1440 
Wed 21:30    W 24/ 35  16.4 11.1  1015.3    0.0   0.0   0.0   0.0   10000|SC1230 BR1380 OC1560 
Wed 22:00    W 20/ 26  16.1 10.8  1015.4    0.0   0.0   0.0   0.0   10000|BR1260 OC1440 OC1620 
Wed 22:30  WNW 22/ 28  15.9 10.9  1015.3    0.0   0.0   0.0   0.0   10000|SC1260 OC1620 
Wed 23:00  WNW 17/ 22  15.8 11.0  1015.4    0.0   0.0   0.0   0.0   10000|OC1560 
Wed 23:30    W 17/ 24  15.7 10.5  1015.4    0.0   0.0   0.0   0.0   10000|OC1530 OC1800 
Thu 00:00    W 19/ 24  15.4 10.4  1015.3    0.0   0.0   0.0   0.0   10000|BR 840 OC1590 
Thu 00:30  WNW 15/ 17  14.9 10.7  1015.1    0.0   0.0   0.0   0.0   10000|BR 840 OC1770 
Thu 01:00    W 13/ 15  14.0 10.6  1015.1    0.0   0.0   0.0   0.0   10000|BR1290 BR1770 
Thu 01:30    W 15/ 17  13.3 10.5  1014.7    0.0   0.0   0.0   0.0   10000|SC1350 SC1710 
Thu 02:00    W 15/ 19  12.8 10.2  1014.5    0.0   0.0   0.0   0.0   10000|SC1650